sensor_id;sensor_type;location;lat;lon;timestamp;P1;durP1;ratioP1;P2;durP2;ratioP2
20609;SDS011;10463;52.378;9.688;2023-10-09T00:02:27;3.50;;;1.80;;
20609;SDS011;10463;52.378;9.688;2023-10-09T00:05:13;3.20;;;1.40;;
20609;SDS011;10463;52.378;9.688;2023-10-09T00:08:07;2.87;;;1.47;;
20609;SDS011;10463;52.378;9.688;2023-10-09T00:10:52;2.00;;;1.47;;
20609;SDS011;10463;52.378;9.688;2023-10-09T00:13:38;1.70;;;1.17;;
20609;SDS011;10463;52.378;9.688;2023-10-09T00:16:32;1.70;;;0.97;;
20609;SDS011;10463;52.378;9.688;2023-10-09T00:19:19;2.17;;;1.40;;
20609;SDS011;10463;52.378;9.688;2023-10-09T00:22:05;1.80;;;1.17;;
20609;SDS011;10463;52.378;9.688;2023-10-09T00:24:56;2.10;;;1.47;;
20609;SDS011;10463;52.378;9.688;2023-10-09T00:28:07;2.23;;;1.63;;
20609;SDS011;10463;52.378;9.688;2023-10-09T00:31:03;2.50;;;1.33;;
20609;SDS011;10463;52.378;9.688;2023-10-09T00:33:50;3.50;;;1.43;;
20609;SDS011;10463;52.378;9.688;2023-10-09T00:36:37;2.27;;;1.20;;
20609;SDS011;10463;52.378;9.688;2023-10-09T00:39:34;2.70;;;1.40;;
20609;SDS011;10463;52.378;9.688;2023-10-09T00:42:28;1.93;;;1.20;;
20609;SDS011;10463;52.378;9.688;2023-10-09T00:45:19;2.37;;;1.50;;
20609;SDS011;10463;52.378;9.688;2023-10-09T00:48:11;3.60;;;1.30;;
20609;SDS011;10463;52.378;9.688;2023-10-09T00:51:07;2.47;;;1.20;;
20609;SDS011;10463;52.378;9.688;2023-10-09T00:54:02;1.87;;;1.23;;
20609;SDS011;10463;52.378;9.688;2023-10-09T00:56:57;2.50;;;1.30;;
20609;SDS011;10463;52.378;9.688;2023-10-09T00:59:53;1.87;;;1.03;;
20609;SDS011;10463;52.378;9.688;2023-10-09T01:02:43;2.00;;;1.40;;
20609;SDS011;10463;52.378;9.688;2023-10-09T01:05:28;3.03;;;1.63;;
20609;SDS011;10463;52.378;9.688;2023-10-09T01:08:13;2.00;;;1.00;;
20609;SDS011;10463;52.378;9.688;2023-10-09T01:11:11;2.33;;;1.60;;
20609;SDS011;10463;52.378;9.688;2023-10-09T01:14:03;2.00;;;1.30;;
20609;SDS011;10463;52.378;9.688;2023-10-09T01:16:50;1.77;;;1.13;;
20609;SDS011;10463;52.378;9.688;2023-10-09T01:19:38;1.80;;;1.10;;
20609;SDS011;10463;52.378;9.688;2023-10-09T01:22:22;2.00;;;1.30;;
20609;SDS011;10463;52.378;9.688;2023-10-09T01:25:08;1.70;;;1.00;;
20609;SDS011;10463;52.378;9.688;2023-10-09T01:27:54;3.30;;;1.47;;
20609;SDS011;10463;52.378;9.688;2023-10-09T01:30:42;2.00;;;1.27;;
20609;SDS011;10463;52.378;9.688;2023-10-09T01:33:27;2.40;;;1.20;;
20609;SDS011;10463;52.378;9.688;2023-10-09T01:36:12;2.27;;;1.50;;
20609;SDS011;10463;52.378;9.688;2023-10-09T01:38:59;2.83;;;1.30;;
20609;SDS011;10463;52.378;9.688;2023-10-09T01:41:52;2.20;;;1.30;;
20609;SDS011;10463;52.378;9.688;2023-10-09T01:44:50;1.87;;;1.23;;
20609;SDS011;10463;52.378;9.688;2023-10-09T01:47:36;2.63;;;1.63;;
20609;SDS011;10463;52.378;9.688;2023-10-09T01:50:22;2.13;;;1.47;;
20609;SDS011;10463;52.378;9.688;2023-10-09T01:53:10;2.40;;;1.53;;
20609;SDS011;10463;52.378;9.688;2023-10-09T01:56:08;2.23;;;1.30;;
20609;SDS011;10463;52.378;9.688;2023-10-09T01:59:00;1.80;;;1.10;;
20609;SDS011;10463;52.378;9.688;2023-10-09T02:05:00;3.27;;;1.60;;
20609;SDS011;10463;52.378;9.688;2023-10-09T02:07:58;2.27;;;1.20;;
20609;SDS011;10463;52.378;9.688;2023-10-09T02:10:46;2.30;;;1.47;;
20609;SDS011;10463;52.378;9.688;2023-10-09T02:13:32;2.67;;;1.23;;
20609;SDS011;10463;52.378;9.688;2023-10-09T02:16:21;2.33;;;1.53;;
20609;SDS011;10463;52.378;9.688;2023-10-09T02:19:13;2.97;;;1.73;;
20609;SDS011;10463;52.378;9.688;2023-10-09T02:22:15;2.17;;;1.20;;
20609;SDS011;10463;52.378;9.688;2023-10-09T02:25:01;2.13;;;1.37;;
20609;SDS011;10463;52.378;9.688;2023-10-09T02:27:49;2.17;;;1.63;;
20609;SDS011;10463;52.378;9.688;2023-10-09T02:30:38;3.10;;;1.67;;
20609;SDS011;10463;52.378;9.688;2023-10-09T02:33:26;2.10;;;1.27;;
20609;SDS011;10463;52.378;9.688;2023-10-09T02:36:12;2.60;;;1.67;;
20609;SDS011;10463;52.378;9.688;2023-10-09T02:38:56;2.60;;;1.50;;
20609;SDS011;10463;52.378;9.688;2023-10-09T02:41:41;3.10;;;1.70;;
20609;SDS011;10463;52.378;9.688;2023-10-09T02:44:33;2.77;;;1.57;;
20609;SDS011;10463;52.378;9.688;2023-10-09T02:47:26;1.83;;;1.40;;
20609;SDS011;10463;52.378;9.688;2023-10-09T02:50:22;2.47;;;1.40;;
20609;SDS011;10463;52.378;9.688;2023-10-09T02:53:12;1.90;;;1.40;;
20609;SDS011;10463;52.378;9.688;2023-10-09T02:56:04;3.43;;;1.53;;
20609;SDS011;10463;52.378;9.688;2023-10-09T02:58:56;2.50;;;1.50;;
20609;SDS011;10463;52.378;9.688;2023-10-09T03:01:49;2.40;;;1.57;;
20609;SDS011;10463;52.378;9.688;2023-10-09T03:04:36;2.30;;;1.50;;
20609;SDS011;10463;52.378;9.688;2023-10-09T03:07:24;2.60;;;1.50;;
20609;SDS011;10463;52.378;9.688;2023-10-09T03:10:09;2.47;;;1.40;;
20609;SDS011;10463;52.378;9.688;2023-10-09T03:12:54;3.17;;;1.50;;
20609;SDS011;10463;52.378;9.688;2023-10-09T03:15:39;3.37;;;1.70;;
20609;SDS011;10463;52.378;9.688;2023-10-09T03:18:25;2.30;;;1.97;;
20609;SDS011;10463;52.378;9.688;2023-10-09T03:21:09;2.50;;;1.73;;
20609;SDS011;10463;52.378;9.688;2023-10-09T03:23:55;3.40;;;1.73;;
20609;SDS011;10463;52.378;9.688;2023-10-09T03:26:40;3.53;;;1.93;;
20609;SDS011;10463;52.378;9.688;2023-10-09T03:29:25;3.60;;;2.13;;
20609;SDS011;10463;52.378;9.688;2023-10-09T03:32:11;1.97;;;1.23;;
20609;SDS011;10463;52.378;9.688;2023-10-09T03:34:55;2.90;;;2.07;;
20609;SDS011;10463;52.378;9.688;2023-10-09T03:37:43;3.40;;;1.80;;
20609;SDS011;10463;52.378;9.688;2023-10-09T03:40:29;2.73;;;1.93;;
20609;SDS011;10463;52.378;9.688;2023-10-09T03:43:15;2.80;;;1.80;;
20609;SDS011;10463;52.378;9.688;2023-10-09T03:46:00;2.80;;;1.77;;
20609;SDS011;10463;52.378;9.688;2023-10-09T03:48:47;4.13;;;2.17;;
20609;SDS011;10463;52.378;9.688;2023-10-09T03:51:32;2.90;;;1.90;;
20609;SDS011;10463;52.378;9.688;2023-10-09T03:54:16;2.30;;;1.90;;
20609;SDS011;10463;52.378;9.688;2023-10-09T03:57:05;2.80;;;2.10;;
20609;SDS011;10463;52.378;9.688;2023-10-09T03:59:49;3.03;;;2.00;;
20609;SDS011;10463;52.378;9.688;2023-10-09T04:02:35;3.60;;;1.73;;
20609;SDS011;10463;52.378;9.688;2023-10-09T04:05:20;3.27;;;2.10;;
20609;SDS011;10463;52.378;9.688;2023-10-09T04:08:05;3.20;;;2.37;;
20609;SDS011;10463;52.378;9.688;2023-10-09T04:10:57;3.30;;;2.20;;
20609;SDS011;10463;52.378;9.688;2023-10-09T04:13:48;3.20;;;1.90;;
20609;SDS011;10463;52.378;9.688;2023-10-09T04:16:33;2.53;;;1.70;;
20609;SDS011;10463;52.378;9.688;2023-10-09T04:19:18;4.60;;;2.10;;
20609;SDS011;10463;52.378;9.688;2023-10-09T04:22:05;3.07;;;2.27;;
20609;SDS011;10463;52.378;9.688;2023-10-09T04:25:09;4.33;;;2.00;;
20609;SDS011;10463;52.378;9.688;2023-10-09T04:27:59;2.87;;;2.03;;
20609;SDS011;10463;52.378;9.688;2023-10-09T04:30:55;3.10;;;2.23;;
20609;SDS011;10463;52.378;9.688;2023-10-09T04:33:40;3.00;;;2.00;;
20609;SDS011;10463;52.378;9.688;2023-10-09T04:36:29;2.57;;;2.00;;
20609;SDS011;10463;52.378;9.688;2023-10-09T04:39:20;2.83;;;2.40;;
20609;SDS011;10463;52.378;9.688;2023-10-09T04:42:14;3.77;;;2.30;;
20609;SDS011;10463;52.378;9.688;2023-10-09T04:45:04;2.67;;;2.17;;
20609;SDS011;10463;52.378;9.688;2023-10-09T04:47:51;4.57;;;2.77;;
20609;SDS011;10463;52.378;9.688;2023-10-09T04:50:42;4.23;;;2.60;;
20609;SDS011;10463;52.378;9.688;2023-10-09T04:53:50;3.70;;;2.83;;
20609;SDS011;10463;52.378;9.688;2023-10-09T04:56:44;4.00;;;2.40;;
20609;SDS011;10463;52.378;9.688;2023-10-09T04:59:37;3.80;;;2.30;;
20609;SDS011;10463;52.378;9.688;2023-10-09T05:02:30;5.00;;;2.80;;
20609;SDS011;10463;52.378;9.688;2023-10-09T05:05:24;4.10;;;3.10;;
20609;SDS011;10463;52.378;9.688;2023-10-09T05:08:26;3.60;;;2.90;;
20609;SDS011;10463;52.378;9.688;2023-10-09T05:11:11;5.30;;;3.83;;
20609;SDS011;10463;52.378;9.688;2023-10-09T05:14:14;6.23;;;3.07;;
20609;SDS011;10463;52.378;9.688;2023-10-09T05:17:00;4.93;;;4.10;;
20609;SDS011;10463;52.378;9.688;2023-10-09T05:19:50;4.80;;;3.60;;
20609;SDS011;10463;52.378;9.688;2023-10-09T05:23:02;5.80;;;4.20;;
20609;SDS011;10463;52.378;9.688;2023-10-09T05:26:07;4.50;;;3.40;;
20609;SDS011;10463;52.378;9.688;2023-10-09T05:29:11;5.57;;;3.77;;
20609;SDS011;10463;52.378;9.688;2023-10-09T05:32:15;5.40;;;4.00;;
20609;SDS011;10463;52.378;9.688;2023-10-09T05:35:12;5.43;;;4.10;;
20609;SDS011;10463;52.378;9.688;2023-10-09T05:37:59;7.10;;;4.10;;
20609;SDS011;10463;52.378;9.688;2023-10-09T05:40:49;5.90;;;3.80;;
20609;SDS011;10463;52.378;9.688;2023-10-09T05:43:37;5.90;;;4.30;;
20609;SDS011;10463;52.378;9.688;2023-10-09T05:46:42;5.23;;;3.93;;
20609;SDS011;10463;52.378;9.688;2023-10-09T05:49:53;5.60;;;3.97;;
20609;SDS011;10463;52.378;9.688;2023-10-09T05:52:53;6.30;;;4.50;;
20609;SDS011;10463;52.378;9.688;2023-10-09T05:56:03;5.47;;;4.13;;
20609;SDS011;10463;52.378;9.688;2023-10-09T05:59:06;7.10;;;4.40;;
20609;SDS011;10463;52.378;9.688;2023-10-09T06:02:10;5.93;;;4.33;;
20609;SDS011;10463;52.378;9.688;2023-10-09T06:05:20;5.90;;;4.53;;
20609;SDS011;10463;52.378;9.688;2023-10-09T06:08:34;8.37;;;4.60;;
20609;SDS011;10463;52.378;9.688;2023-10-09T06:11:26;7.00;;;4.80;;
20609;SDS011;10463;52.378;9.688;2023-10-09T06:14:17;5.73;;;4.77;;
20609;SDS011;10463;52.378;9.688;2023-10-09T06:17:14;7.03;;;5.10;;
20609;SDS011;10463;52.378;9.688;2023-10-09T06:20:21;9.17;;;5.80;;
20609;SDS011;10463;52.378;9.688;2023-10-09T06:23:45;12.13;;;5.80;;
20609;SDS011;10463;52.378;9.688;2023-10-09T06:26:50;8.93;;;6.03;;
20609;SDS011;10463;52.378;9.688;2023-10-09T06:29:43;6.87;;;5.63;;
20609;SDS011;10463;52.378;9.688;2023-10-09T06:32:28;7.67;;;5.93;;
20609;SDS011;10463;52.378;9.688;2023-10-09T06:35:16;10.80;;;6.03;;
20609;SDS011;10463;52.378;9.688;2023-10-09T06:38:03;8.30;;;5.57;;
20609;SDS011;10463;52.378;9.688;2023-10-09T06:41:07;6.77;;;5.80;;
20609;SDS011;10463;52.378;9.688;2023-10-09T06:44:12;8.50;;;6.07;;
20609;SDS011;10463;52.378;9.688;2023-10-09T06:47:16;8.80;;;5.80;;
20609;SDS011;10463;52.378;9.688;2023-10-09T06:50:03;7.87;;;6.10;;
20609;SDS011;10463;52.378;9.688;2023-10-09T06:53:04;7.67;;;5.50;;
20609;SDS011;10463;52.378;9.688;2023-10-09T06:55:54;7.63;;;5.20;;
20609;SDS011;10463;52.378;9.688;2023-10-09T06:58:49;5.10;;;4.43;;
20609;SDS011;10463;52.378;9.688;2023-10-09T07:04:23;6.27;;;4.93;;
20609;SDS011;10463;52.378;9.688;2023-10-09T07:07:16;7.47;;;4.90;;
20609;SDS011;10463;52.378;9.688;2023-10-09T07:10:06;6.47;;;4.67;;
20609;SDS011;10463;52.378;9.688;2023-10-09T07:13:10;6.43;;;5.30;;
20609;SDS011;10463;52.378;9.688;2023-10-09T07:15:55;8.23;;;5.17;;
20609;SDS011;10463;52.378;9.688;2023-10-09T07:18:58;5.27;;;4.30;;
20609;SDS011;10463;52.378;9.688;2023-10-09T07:21:54;6.20;;;4.90;;
20609;SDS011;10463;52.378;9.688;2023-10-09T07:24:39;7.30;;;5.13;;
20609;SDS011;10463;52.378;9.688;2023-10-09T07:27:28;8.10;;;5.33;;
20609;SDS011;10463;52.378;9.688;2023-10-09T07:30:49;9.30;;;5.43;;
20609;SDS011;10463;52.378;9.688;2023-10-09T07:33:41;8.70;;;5.87;;
20609;SDS011;10463;52.378;9.688;2023-10-09T07:36:40;9.30;;;6.40;;
20609;SDS011;10463;52.378;9.688;2023-10-09T07:39:33;7.10;;;5.70;;
20609;SDS011;10463;52.378;9.688;2023-10-09T07:42:20;6.50;;;5.80;;
20609;SDS011;10463;52.378;9.688;2023-10-09T07:45:27;9.97;;;6.70;;
20609;SDS011;10463;52.378;9.688;2023-10-09T07:48:12;8.33;;;7.00;;
20609;SDS011;10463;52.378;9.688;2023-10-09T07:50:58;9.20;;;7.50;;
20609;SDS011;10463;52.378;9.688;2023-10-09T07:53:43;10.63;;;6.97;;
20609;SDS011;10463;52.378;9.688;2023-10-09T07:56:29;8.77;;;7.47;;
20609;SDS011;10463;52.378;9.688;2023-10-09T07:59:22;9.13;;;7.30;;
20609;SDS011;10463;52.378;9.688;2023-10-09T08:05:05;8.17;;;6.30;;
20609;SDS011;10463;52.378;9.688;2023-10-09T08:07:50;8.00;;;6.83;;
20609;SDS011;10463;52.378;9.688;2023-10-09T08:10:43;10.20;;;6.80;;
20609;SDS011;10463;52.378;9.688;2023-10-09T08:13:49;9.87;;;6.80;;
20609;SDS011;10463;52.378;9.688;2023-10-09T08:16:33;9.80;;;7.17;;
20609;SDS011;10463;52.378;9.688;2023-10-09T08:19:21;8.20;;;6.20;;
20609;SDS011;10463;52.378;9.688;2023-10-09T08:22:26;8.83;;;5.90;;
20609;SDS011;10463;52.378;9.688;2023-10-09T08:25:12;8.20;;;6.60;;
20609;SDS011;10463;52.378;9.688;2023-10-09T08:28:15;8.70;;;6.77;;
20609;SDS011;10463;52.378;9.688;2023-10-09T08:31:20;8.57;;;6.60;;
20609;SDS011;10463;52.378;9.688;2023-10-09T08:34:29;5.93;;;5.33;;
20609;SDS011;10463;52.378;9.688;2023-10-09T08:37:19;7.80;;;6.50;;
20609;SDS011;10463;52.378;9.688;2023-10-09T08:40:09;7.73;;;6.33;;
20609;SDS011;10463;52.378;9.688;2023-10-09T08:43:02;8.07;;;6.20;;
20609;SDS011;10463;52.378;9.688;2023-10-09T08:45:53;7.90;;;6.50;;
20609;SDS011;10463;52.378;9.688;2023-10-09T08:48:46;7.60;;;6.40;;
20609;SDS011;10463;52.378;9.688;2023-10-09T08:51:32;7.47;;;6.00;;
20609;SDS011;10463;52.378;9.688;2023-10-09T08:54:19;7.20;;;6.00;;
20609;SDS011;10463;52.378;9.688;2023-10-09T08:57:03;8.77;;;6.13;;
20609;SDS011;10463;52.378;9.688;2023-10-09T08:59:53;8.47;;;6.17;;
20609;SDS011;10463;52.378;9.688;2023-10-09T09:02:38;7.90;;;6.43;;
20609;SDS011;10463;52.378;9.688;2023-10-09T09:05:24;8.90;;;6.80;;
20609;SDS011;10463;52.378;9.688;2023-10-09T09:08:22;7.13;;;5.93;;
20609;SDS011;10463;52.378;9.688;2023-10-09T09:11:11;7.97;;;6.57;;
20609;SDS011;10463;52.378;9.688;2023-10-09T09:14:02;7.17;;;6.00;;
20609;SDS011;10463;52.378;9.688;2023-10-09T09:16:48;8.33;;;6.30;;
20609;SDS011;10463;52.378;9.688;2023-10-09T09:19:33;7.73;;;5.73;;
20609;SDS011;10463;52.378;9.688;2023-10-09T09:22:23;8.53;;;6.23;;
20609;SDS011;10463;52.378;9.688;2023-10-09T09:25:11;8.30;;;6.60;;
20609;SDS011;10463;52.378;9.688;2023-10-09T09:27:55;7.33;;;6.30;;
20609;SDS011;10463;52.378;9.688;2023-10-09T09:30:43;8.47;;;6.07;;
20609;SDS011;10463;52.378;9.688;2023-10-09T09:33:27;7.60;;;6.37;;
20609;SDS011;10463;52.378;9.688;2023-10-09T09:36:12;6.90;;;6.17;;
20609;SDS011;10463;52.378;9.688;2023-10-09T09:38:58;8.03;;;6.40;;
20609;SDS011;10463;52.378;9.688;2023-10-09T09:41:45;6.30;;;5.60;;
20609;SDS011;10463;52.378;9.688;2023-10-09T09:44:31;10.50;;;6.03;;
20609;SDS011;10463;52.378;9.688;2023-10-09T09:47:18;8.50;;;6.43;;
20609;SDS011;10463;52.378;9.688;2023-10-09T09:50:11;8.53;;;6.03;;
20609;SDS011;10463;52.378;9.688;2023-10-09T09:53:08;9.60;;;6.10;;
20609;SDS011;10463;52.378;9.688;2023-10-09T09:56:01;6.70;;;5.57;;
20609;SDS011;10463;52.378;9.688;2023-10-09T09:58:50;7.60;;;6.07;;
20609;SDS011;10463;52.378;9.688;2023-10-09T10:01:37;7.07;;;5.67;;
20609;SDS011;10463;52.378;9.688;2023-10-09T10:04:25;7.20;;;5.93;;
20609;SDS011;10463;52.378;9.688;2023-10-09T10:07:13;6.37;;;5.70;;
20609;SDS011;10463;52.378;9.688;2023-10-09T10:10:00;7.27;;;5.33;;
20609;SDS011;10463;52.378;9.688;2023-10-09T10:12:53;5.87;;;5.27;;
20609;SDS011;10463;52.378;9.688;2023-10-09T10:16:04;6.27;;;5.40;;
20609;SDS011;10463;52.378;9.688;2023-10-09T10:18:58;7.93;;;5.10;;
20609;SDS011;10463;52.378;9.688;2023-10-09T10:21:55;7.40;;;5.70;;
20609;SDS011;10463;52.378;9.688;2023-10-09T10:24:45;6.50;;;5.50;;
20609;SDS011;10463;52.378;9.688;2023-10-09T10:27:36;7.50;;;6.30;;
20609;SDS011;10463;52.378;9.688;2023-10-09T10:30:49;6.17;;;5.33;;
20609;SDS011;10463;52.378;9.688;2023-10-09T10:34:03;10.63;;;6.10;;
20609;SDS011;10463;52.378;9.688;2023-10-09T10:36:54;7.90;;;5.83;;
20609;SDS011;10463;52.378;9.688;2023-10-09T10:39:49;7.87;;;5.70;;
20609;SDS011;10463;52.378;9.688;2023-10-09T10:42:34;9.10;;;6.20;;
20609;SDS011;10463;52.378;9.688;2023-10-09T10:45:19;8.97;;;6.57;;
20609;SDS011;10463;52.378;9.688;2023-10-09T10:48:20;7.83;;;6.27;;
20609;SDS011;10463;52.378;9.688;2023-10-09T10:51:21;7.33;;;6.37;;
20609;SDS011;10463;52.378;9.688;2023-10-09T10:54:06;6.90;;;5.93;;
20609;SDS011;10463;52.378;9.688;2023-10-09T10:57:17;7.40;;;5.80;;
20609;SDS011;10463;52.378;9.688;2023-10-09T11:00:35;9.70;;;5.83;;
20609;SDS011;10463;52.378;9.688;2023-10-09T11:03:40;6.57;;;5.87;;
20609;SDS011;10463;52.378;9.688;2023-10-09T11:06:40;8.57;;;6.00;;
20609;SDS011;10463;52.378;9.688;2023-10-09T11:09:27;6.50;;;5.33;;
20609;SDS011;10463;52.378;9.688;2023-10-09T11:12:20;7.03;;;6.33;;
20609;SDS011;10463;52.378;9.688;2023-10-09T11:15:07;8.73;;;5.40;;
20609;SDS011;10463;52.378;9.688;2023-10-09T11:18:13;7.90;;;6.23;;
20609;SDS011;10463;52.378;9.688;2023-10-09T11:21:10;7.27;;;6.10;;
20609;SDS011;10463;52.378;9.688;2023-10-09T11:23:54;7.77;;;5.60;;
20609;SDS011;10463;52.378;9.688;2023-10-09T11:26:42;6.63;;;5.57;;
20609;SDS011;10463;52.378;9.688;2023-10-09T11:29:37;7.57;;;5.53;;
20609;SDS011;10463;52.378;9.688;2023-10-09T11:32:36;6.10;;;5.20;;
20609;SDS011;10463;52.378;9.688;2023-10-09T11:35:22;6.67;;;5.10;;
20609;SDS011;10463;52.378;9.688;2023-10-09T11:38:19;6.97;;;5.23;;
20609;SDS011;10463;52.378;9.688;2023-10-09T11:41:15;5.40;;;4.63;;
20609;SDS011;10463;52.378;9.688;2023-10-09T11:44:03;6.40;;;4.80;;
20609;SDS011;10463;52.378;9.688;2023-10-09T11:46:56;8.17;;;5.43;;
20609;SDS011;10463;52.378;9.688;2023-10-09T11:49:47;6.87;;;5.03;;
20609;SDS011;10463;52.378;9.688;2023-10-09T11:53:01;5.60;;;4.67;;
20609;SDS011;10463;52.378;9.688;2023-10-09T11:55:54;5.47;;;4.70;;
20609;SDS011;10463;52.378;9.688;2023-10-09T11:58:38;6.53;;;4.97;;
20609;SDS011;10463;52.378;9.688;2023-10-09T12:01:24;5.70;;;4.70;;
20609;SDS011;10463;52.378;9.688;2023-10-09T12:04:10;5.10;;;4.60;;
20609;SDS011;10463;52.378;9.688;2023-10-09T12:06:57;6.97;;;5.20;;
20609;SDS011;10463;52.378;9.688;2023-10-09T12:09:50;5.73;;;4.67;;
20609;SDS011;10463;52.378;9.688;2023-10-09T12:12:41;5.10;;;4.20;;
20609;SDS011;10463;52.378;9.688;2023-10-09T12:15:30;7.33;;;4.83;;
20609;SDS011;10463;52.378;9.688;2023-10-09T12:18:21;5.53;;;4.87;;
20609;SDS011;10463;52.378;9.688;2023-10-09T12:21:08;6.50;;;5.40;;
20609;SDS011;10463;52.378;9.688;2023-10-09T12:23:59;6.30;;;5.07;;
20609;SDS011;10463;52.378;9.688;2023-10-09T12:26:43;5.93;;;4.93;;
20609;SDS011;10463;52.378;9.688;2023-10-09T12:29:31;6.60;;;5.50;;
20609;SDS011;10463;52.378;9.688;2023-10-09T12:32:16;5.70;;;4.90;;
20609;SDS011;10463;52.378;9.688;2023-10-09T12:35:04;5.93;;;4.97;;
20609;SDS011;10463;52.378;9.688;2023-10-09T12:38:01;6.33;;;5.03;;
20609;SDS011;10463;52.378;9.688;2023-10-09T12:40:46;5.67;;;4.70;;
20609;SDS011;10463;52.378;9.688;2023-10-09T12:43:37;6.13;;;4.93;;
20609;SDS011;10463;52.378;9.688;2023-10-09T12:46:23;5.27;;;4.50;;
20609;SDS011;10463;52.378;9.688;2023-10-09T12:49:09;5.47;;;4.80;;
20609;SDS011;10463;52.378;9.688;2023-10-09T12:51:54;6.03;;;4.50;;
20609;SDS011;10463;52.378;9.688;2023-10-09T12:54:42;6.00;;;5.27;;
20609;SDS011;10463;52.378;9.688;2023-10-09T12:57:27;5.40;;;4.57;;
20609;SDS011;10463;52.378;9.688;2023-10-09T13:00:12;5.40;;;4.73;;
20609;SDS011;10463;52.378;9.688;2023-10-09T13:02:59;5.50;;;4.50;;
20609;SDS011;10463;52.378;9.688;2023-10-09T13:05:57;5.33;;;4.30;;
20609;SDS011;10463;52.378;9.688;2023-10-09T13:08:43;4.83;;;4.33;;
20609;SDS011;10463;52.378;9.688;2023-10-09T13:11:29;5.87;;;4.40;;
20609;SDS011;10463;52.378;9.688;2023-10-09T13:14:14;5.70;;;4.30;;
20609;SDS011;10463;52.378;9.688;2023-10-09T13:17:05;7.63;;;4.93;;
20609;SDS011;10463;52.378;9.688;2023-10-09T13:19:55;6.20;;;4.13;;
20609;SDS011;10463;52.378;9.688;2023-10-09T13:22:40;5.43;;;4.30;;
20609;SDS011;10463;52.378;9.688;2023-10-09T13:25:25;5.57;;;4.10;;
20609;SDS011;10463;52.378;9.688;2023-10-09T13:28:16;4.87;;;3.60;;
20609;SDS011;10463;52.378;9.688;2023-10-09T13:31:04;4.27;;;3.40;;
20609;SDS011;10463;52.378;9.688;2023-10-09T13:33:49;4.53;;;3.60;;
20609;SDS011;10463;52.378;9.688;2023-10-09T13:36:39;4.23;;;3.83;;
20609;SDS011;10463;52.378;9.688;2023-10-09T13:39:25;4.30;;;3.60;;
20609;SDS011;10463;52.378;9.688;2023-10-09T13:42:10;5.90;;;4.60;;
20609;SDS011;10463;52.378;9.688;2023-10-09T13:44:55;5.70;;;3.90;;
20609;SDS011;10463;52.378;9.688;2023-10-09T13:47:40;4.30;;;3.90;;
20609;SDS011;10463;52.378;9.688;2023-10-09T13:50:24;4.67;;;3.57;;
20609;SDS011;10463;52.378;9.688;2023-10-09T13:53:17;4.37;;;3.20;;
20609;SDS011;10463;52.378;9.688;2023-10-09T13:56:01;4.40;;;4.00;;
20609;SDS011;10463;52.378;9.688;2023-10-09T13:58:47;4.20;;;3.80;;
20609;SDS011;10463;52.378;9.688;2023-10-09T14:01:37;4.10;;;3.70;;
20609;SDS011;10463;52.378;9.688;2023-10-09T14:04:23;4.50;;;3.80;;
20609;SDS011;10463;52.378;9.688;2023-10-09T14:07:08;4.43;;;3.47;;
20609;SDS011;10463;52.378;9.688;2023-10-09T14:09:54;3.73;;;3.20;;
20609;SDS011;10463;52.378;9.688;2023-10-09T14:12:40;3.30;;;2.67;;
20609;SDS011;10463;52.378;9.688;2023-10-09T14:15:26;5.10;;;3.87;;
20609;SDS011;10463;52.378;9.688;2023-10-09T14:18:11;5.23;;;3.13;;
20609;SDS011;10463;52.378;9.688;2023-10-09T14:20:56;3.97;;;3.20;;
20609;SDS011;10463;52.378;9.688;2023-10-09T14:23:44;4.33;;;3.10;;
20609;SDS011;10463;52.378;9.688;2023-10-09T14:26:32;5.23;;;4.37;;
20609;SDS011;10463;52.378;9.688;2023-10-09T14:29:18;6.00;;;5.30;;
20609;SDS011;10463;52.378;9.688;2023-10-09T14:32:03;9.40;;;5.87;;
20609;SDS011;10463;52.378;9.688;2023-10-09T14:34:49;6.60;;;5.37;;
20609;SDS011;10463;52.378;9.688;2023-10-09T14:37:38;6.10;;;5.50;;
20609;SDS011;10463;52.378;9.688;2023-10-09T14:40:23;6.20;;;5.60;;
20609;SDS011;10463;52.378;9.688;2023-10-09T14:43:17;5.50;;;5.00;;
20609;SDS011;10463;52.378;9.688;2023-10-09T14:46:05;6.77;;;6.07;;
20609;SDS011;10463;52.378;9.688;2023-10-09T14:48:55;6.30;;;5.50;;
20609;SDS011;10463;52.378;9.688;2023-10-09T14:51:40;6.90;;;6.20;;
20609;SDS011;10463;52.378;9.688;2023-10-09T14:54:28;9.33;;;6.27;;
20609;SDS011;10463;52.378;9.688;2023-10-09T14:57:13;7.97;;;6.50;;
20609;SDS011;10463;52.378;9.688;2023-10-09T14:59:59;7.90;;;6.07;;
20609;SDS011;10463;52.378;9.688;2023-10-09T15:02:45;6.63;;;5.93;;
20609;SDS011;10463;52.378;9.688;2023-10-09T15:05:30;7.07;;;6.20;;
20609;SDS011;10463;52.378;9.688;2023-10-09T15:08:18;8.00;;;6.73;;
20609;SDS011;10463;52.378;9.688;2023-10-09T15:11:02;8.47;;;6.50;;
20609;SDS011;10463;52.378;9.688;2023-10-09T15:13:47;8.20;;;6.53;;
20609;SDS011;10463;52.378;9.688;2023-10-09T15:16:33;7.77;;;5.43;;
20609;SDS011;10463;52.378;9.688;2023-10-09T15:19:17;6.80;;;6.00;;
20609;SDS011;10463;52.378;9.688;2023-10-09T15:22:03;6.07;;;5.47;;
20609;SDS011;10463;52.378;9.688;2023-10-09T15:24:53;8.50;;;6.50;;
20609;SDS011;10463;52.378;9.688;2023-10-09T15:27:38;6.80;;;5.60;;
20609;SDS011;10463;52.378;9.688;2023-10-09T15:30:23;6.90;;;5.80;;
20609;SDS011;10463;52.378;9.688;2023-10-09T15:33:13;7.93;;;4.90;;
20609;SDS011;10463;52.378;9.688;2023-10-09T15:36:00;6.10;;;4.03;;
20609;SDS011;10463;52.378;9.688;2023-10-09T15:38:55;4.83;;;3.83;;
20609;SDS011;10463;52.378;9.688;2023-10-09T15:41:43;5.80;;;3.90;;
20609;SDS011;10463;52.378;9.688;2023-10-09T15:44:27;4.17;;;3.17;;
20609;SDS011;10463;52.378;9.688;2023-10-09T15:47:12;5.00;;;3.10;;
20609;SDS011;10463;52.378;9.688;2023-10-09T15:49:58;7.87;;;2.90;;
20609;SDS011;10463;52.378;9.688;2023-10-09T15:52:43;5.30;;;3.60;;
20609;SDS011;10463;52.378;9.688;2023-10-09T15:55:32;4.20;;;2.77;;
20609;SDS011;10463;52.378;9.688;2023-10-09T15:58:18;5.70;;;3.10;;
20609;SDS011;10463;52.378;9.688;2023-10-09T16:01:04;3.13;;;2.30;;
20609;SDS011;10463;52.378;9.688;2023-10-09T16:03:51;2.77;;;2.37;;
20609;SDS011;10463;52.378;9.688;2023-10-09T16:06:38;3.77;;;2.90;;
20609;SDS011;10463;52.378;9.688;2023-10-09T16:09:24;3.70;;;2.40;;
20609;SDS011;10463;52.378;9.688;2023-10-09T16:12:09;3.70;;;2.70;;
20609;SDS011;10463;52.378;9.688;2023-10-09T16:14:57;2.70;;;2.50;;
20609;SDS011;10463;52.378;9.688;2023-10-09T16:17:41;3.07;;;2.27;;
20609;SDS011;10463;52.378;9.688;2023-10-09T16:20:26;4.03;;;2.60;;
20609;SDS011;10463;52.378;9.688;2023-10-09T16:23:12;2.73;;;2.47;;
20609;SDS011;10463;52.378;9.688;2023-10-09T16:25:57;3.90;;;2.50;;
20609;SDS011;10463;52.378;9.688;2023-10-09T16:28:43;2.47;;;1.93;;
20609;SDS011;10463;52.378;9.688;2023-10-09T16:31:29;3.03;;;2.23;;
20609;SDS011;10463;52.378;9.688;2023-10-09T16:34:19;4.70;;;2.80;;
20609;SDS011;10463;52.378;9.688;2023-10-09T16:37:03;2.80;;;2.10;;
20609;SDS011;10463;52.378;9.688;2023-10-09T16:39:52;2.30;;;2.10;;
20609;SDS011;10463;52.378;9.688;2023-10-09T16:42:42;3.53;;;2.37;;
20609;SDS011;10463;52.378;9.688;2023-10-09T16:45:26;3.67;;;2.80;;
20609;SDS011;10463;52.378;9.688;2023-10-09T16:48:11;3.30;;;2.50;;
20609;SDS011;10463;52.378;9.688;2023-10-09T16:50:59;3.67;;;2.30;;
20609;SDS011;10463;52.378;9.688;2023-10-09T16:53:44;4.53;;;2.87;;
20609;SDS011;10463;52.378;9.688;2023-10-09T16:56:30;5.73;;;2.53;;
20609;SDS011;10463;52.378;9.688;2023-10-09T16:59:17;3.60;;;2.80;;
20609;SDS011;10463;52.378;9.688;2023-10-09T17:02:02;3.87;;;2.83;;
20609;SDS011;10463;52.378;9.688;2023-10-09T17:04:56;4.17;;;2.40;;
20609;SDS011;10463;52.378;9.688;2023-10-09T17:07:40;4.20;;;2.67;;
20609;SDS011;10463;52.378;9.688;2023-10-09T17:10:32;3.77;;;2.97;;
20609;SDS011;10463;52.378;9.688;2023-10-09T17:13:20;3.33;;;2.40;;
20609;SDS011;10463;52.378;9.688;2023-10-09T17:16:13;3.60;;;2.70;;
20609;SDS011;10463;52.378;9.688;2023-10-09T17:19:02;2.90;;;2.60;;